Time;durP1;ratioP1;P1;durP2;ratioP2;P2;SDS_P1;SDS_P2;PMS_P1;PMS_P2;Temp;Humidity;BMP_temperature;BMP_pressure;BME280_temperature;BME280_humidity;BME280_pressure;Samples;Min_cycle;Max_cycle;Signal;HPM_P1;HPM_P2
2021/11/07 00:00:43;;;;;;;2.17;1.70;;;10.00;91.00;;;;;;5080339;28;20575;-77
2021/11/07 00:03:18;;;;;;;2.55;1.70;;;10.00;91.10;;;;;;5114522;28;20042;-78
2021/11/07 00:05:54;;;;;;;2.05;1.50;;;9.90;91.10;;;;;;5112681;28;20043;-78
2021/11/07 00:11:02;;;;;;;2.95;1.50;;;9.90;91.10;;;;;;5113224;28;20101;-78
2021/11/07 00:13:28;;;;;;;2.47;1.60;;;9.90;91.10;;;;;;5093352;28;20062;-78
2021/11/07 00:15:59;;;;;;;1.90;1.48;;;9.90;91.20;;;;;;5095265;28;20088;-78
2021/11/07 00:18:34;;;;;;;1.92;1.67;;;9.90;91.20;;;;;;5078967;28;20046;-78
2021/11/07 00:23:58;;;;;;;2.60;1.75;;;9.90;91.20;;;;;;5095118;28;20055;-79
2021/11/07 00:26:36;;;;;;;2.50;1.73;;;9.80;91.20;;;;;;5097670;28;20082;-79
2021/11/07 00:29:09;;;;;;;1.75;1.40;;;9.80;91.20;;;;;;5114695;28;20083;-78
2021/11/07 00:37:06;;;;;;;1.63;1.45;;;9.90;91.30;;;;;;5112502;28;20109;-78
2021/11/07 00:40:05;;;;;;;2.38;1.70;;;9.90;91.30;;;;;;5094486;28;20058;-78
2021/11/07 00:42:25;;;;;;;2.10;1.50;;;9.90;91.30;;;;;;5112070;28;20542;-78
2021/11/07 00:45:03;;;;;;;2.15;1.50;;;9.90;91.30;;;;;;5095487;28;20103;-78
2021/11/07 00:47:42;;;;;;;1.60;1.45;;;10.00;91.40;;;;;;5077978;28;20048;-79
2021/11/07 00:50:13;;;;;;;1.95;1.52;;;9.90;91.40;;;;;;5093809;28;20096;-78
2021/11/07 00:55:29;;;;;;;1.92;1.48;;;9.90;91.40;;;;;;5096670;28;20059;-77
2021/11/07 00:58:02;;;;;;;1.83;1.40;;;9.90;91.40;;;;;;5079527;28;20043;-78
2021/11/07 01:00:46;;;;;;;2.17;1.42;;;10.00;91.40;;;;;;5076106;28;20490;-77
2021/11/07 01:03:16;;;;;;;2.10;1.40;;;9.90;91.40;;;;;;5094255;28;20054;-78
2021/11/07 01:05:42;;;;;;;1.55;1.42;;;10.00;91.40;;;;;;5095101;28;20032;-78
2021/11/07 01:08:07;;;;;;;1.60;1.40;;;9.90;91.40;;;;;;5113477;28;20066;-78
2021/11/07 01:10:34;;;;;;;2.13;1.27;;;10.00;91.70;;;;;;5076082;28;20462;-78
2021/11/07 01:13:00;;;;;;;2.17;1.48;;;10.00;91.50;;;;;;5060529;28;20043;-78
2021/11/07 01:15:28;;;;;;;1.88;1.45;;;10.00;91.50;;;;;;5094020;28;20123;-78
2021/11/07 01:17:55;;;;;;;2.10;1.50;;;10.20;91.50;;;;;;5095582;28;20122;-78
2021/11/07 01:20:25;;;;;;;1.90;1.65;;;10.00;91.50;;;;;;5098959;28;20122;-78
2021/11/07 01:22:58;;;;;;;2.30;1.63;;;10.10;91.50;;;;;;5096392;28;20370;-78
2021/11/07 01:25:25;;;;;;;2.88;1.75;;;10.10;91.50;;;;;;5096535;28;20047;-78
2021/11/07 01:27:52;;;;;;;2.08;1.65;;;10.10;91.50;;;;;;5096311;28;20036;-77
2021/11/07 01:30:22;;;;;;;3.33;1.95;;;10.10;91.50;;;;;;5097407;28;20042;-79
2021/11/07 01:32:54;;;;;;;2.10;1.70;;;10.10;91.60;;;;;;5097228;28;20044;-78
2021/11/07 01:35:25;;;;;;;2.63;1.60;;;10.10;91.60;;;;;;5080795;28;20043;-78
2021/11/07 01:37:59;;;;;;;3.35;2.00;;;10.10;91.60;;;;;;5116053;28;20473;-78
2021/11/07 01:40:29;;;;;;;2.58;2.00;;;10.20;91.60;;;;;;5065980;28;20043;-78
2021/11/07 01:42:57;;;;;;;2.83;1.85;;;10.10;91.60;;;;;;5080484;28;20519;-78
2021/11/07 01:45:27;;;;;;;3.42;2.33;;;10.30;91.60;;;;;;5097688;28;20473;-77
2021/11/07 01:48:05;;;;;;;3.25;1.95;;;10.20;91.60;;;;;;5080068;28;20036;-78
2021/11/07 01:50:34;;;;;;;3.58;2.33;;;10.20;91.60;;;;;;5114934;28;20096;-78
2021/11/07 01:53:07;;;;;;;4.25;2.30;;;10.20;91.60;;;;;;5096798;28;20056;-78
2021/11/07 01:55:33;;;;;;;4.53;2.70;;;10.20;91.60;;;;;;5081842;28;20039;-78
2021/11/07 01:57:59;;;;;;;4.68;2.95;;;10.20;91.60;;;;;;5097266;28;20046;-77
2021/11/07 02:00:28;;;;;;;4.15;2.70;;;10.30;91.70;;;;;;5096853;28;20448;-77
2021/11/07 02:02:55;;;;;;;4.43;2.30;;;10.30;91.70;;;;;;5095676;28;20044;-77
2021/11/07 02:05:21;;;;;;;3.72;2.17;;;10.30;91.70;;;;;;5080267;28;20077;-78
2021/11/07 02:07:48;;;;;;;4.32;2.63;;;10.30;91.70;;;;;;5080885;28;20048;-78
2021/11/07 02:10:16;;;;;;;3.35;2.20;;;10.30;91.70;;;;;;5079848;28;20082;-78
2021/11/07 02:12:43;;;;;;;3.70;2.47;;;10.30;91.70;;;;;;5114762;28;20386;-77
2021/11/07 02:15:14;;;;;;;3.50;2.20;;;10.30;91.70;;;;;;5096645;28;20039;-77
2021/11/07 02:17:41;;;;;;;3.33;2.38;;;10.30;91.80;;;;;;5095122;28;20044;-78
2021/11/07 02:20:11;;;;;;;4.07;2.53;;;10.40;91.80;;;;;;5115199;28;20047;-78
2021/11/07 02:22:39;;;;;;;3.57;2.50;;;10.30;91.80;;;;;;5114679;28;20457;-78
2021/11/07 02:25:05;;;;;;;3.60;2.20;;;10.30;91.80;;;;;;5114331;28;20286;-78
2021/11/07 02:27:31;;;;;;;4.10;2.72;;;10.40;91.80;;;;;;5096760;28;20490;-78
2021/11/07 02:29:57;;;;;;;5.35;3.28;;;10.30;91.80;;;;;;5079553;28;20055;-79
2021/11/07 02:32:25;;;;;;;5.13;3.50;;;10.40;91.80;;;;;;5097373;28;20102;-78
2021/11/07 02:34:52;;;;;;;6.32;3.60;;;10.40;91.80;;;;;;5114982;28;20081;-78
2021/11/07 02:37:19;;;;;;;5.30;3.42;;;10.40;91.80;;;;;;5096256;28;20048;-78
2021/11/07 02:39:45;;;;;;;4.20;2.60;;;10.50;91.90;;;;;;5062611;28;20470;-77
2021/11/07 02:42:12;;;;;;;3.95;2.67;;;10.50;91.90;;;;;;5114179;28;20040;-77
2021/11/07 02:44:45;;;;;;;3.90;2.50;;;10.50;91.90;;;;;;5096122;28;20050;-77
2021/11/07 02:47:14;;;;;;;4.88;2.63;;;10.50;91.90;;;;;;5094158;28;20036;-77
2021/11/07 02:49:41;;;;;;;5.28;3.10;;;10.50;91.90;;;;;;5096801;28;20035;-77
2021/11/07 02:52:09;;;;;;;3.33;2.40;;;10.50;92.00;;;;;;5079674;28;20470;-77
2021/11/07 02:54:35;;;;;;;4.32;2.78;;;10.50;92.00;;;;;;5095457;28;20048;-77
2021/11/07 02:57:04;;;;;;;4.10;2.90;;;10.50;92.00;;;;;;5114336;28;20456;-77
2021/11/07 02:59:33;;;;;;;5.28;3.03;;;10.50;92.00;;;;;;5078739;28;20034;-78
2021/11/07 03:02:00;;;;;;;4.32;3.05;;;10.60;92.00;;;;;;5096175;28;20043;-78
2021/11/07 03:04:26;;;;;;;3.72;2.47;;;10.60;92.00;;;;;;5114294;28;20040;-78
2021/11/07 03:06:52;;;;;;;4.50;2.90;;;10.60;92.00;;;;;;5062129;28;20480;-78
2021/11/07 03:09:23;;;;;;;4.40;2.70;;;10.70;92.00;;;;;;5114698;28;20040;-78
2021/11/07 03:11:52;;;;;;;4.68;3.10;;;10.60;92.00;;;;;;5114815;28;20040;-78
2021/11/07 03:14:22;;;;;;;4.32;2.90;;;10.60;92.00;;;;;;5094585;28;20039;-78
2021/11/07 03:16:48;;;;;;;4.18;2.90;;;10.60;92.00;;;;;;5113782;28;20451;-79
2021/11/07 03:19:15;;;;;;;4.20;2.70;;;10.60;92.00;;;;;;5094687;28;20040;-79
2021/11/07 03:21:42;;;;;;;4.10;2.63;;;10.60;92.00;;;;;;5095788;28;20035;-79
2021/11/07 03:24:08;;;;;;;4.30;2.80;;;10.70;92.10;;;;;;5114134;28;20081;-79
2021/11/07 03:26:37;;;;;;;3.70;2.30;;;10.70;92.10;;;;;;5114593;28;20054;-78
2021/11/07 03:29:05;;;;;;;3.80;2.58;;;10.70;92.10;;;;;;5113903;28;20071;-79
2021/11/07 03:31:41;;;;;;;5.35;3.00;;;10.70;92.10;;;;;;5096274;28;20047;-78
2021/11/07 03:34:13;;;;;;;4.53;2.90;;;10.70;92.10;;;;;;5081191;28;20130;-79
2021/11/07 03:36:50;;;;;;;5.28;3.33;;;10.70;92.10;;;;;;5095610;28;20124;-78
2021/11/07 03:39:18;;;;;;;4.65;2.92;;;10.80;92.10;;;;;;5079879;28;20075;-79
2021/11/07 03:41:46;;;;;;;4.05;2.38;;;10.70;92.10;;;;;;5078222;28;20084;-79
2021/11/07 03:44:13;;;;;;;4.65;2.33;;;10.70;92.10;;;;;;5095204;28;20446;-79
2021/11/07 03:46:39;;;;;;;3.95;2.50;;;10.80;92.20;;;;;;5113661;28;20039;-79
2021/11/07 03:49:06;;;;;;;3.88;2.67;;;10.80;92.20;;;;;;5095776;28;20097;-79
2021/11/07 03:51:35;;;;;;;5.03;2.97;;;10.80;92.20;;;;;;5093580;28;20038;-80
2021/11/07 03:54:00;;;;;;;4.68;2.78;;;10.80;92.20;;;;;;5062706;28;20040;-79
2021/11/07 03:56:27;;;;;;;4.38;2.75;;;10.80;92.20;;;;;;5113553;28;20075;-79
2021/11/07 03:58:53;;;;;;;4.38;2.60;;;10.80;92.20;;;;;;5113607;28;20110;-79
2021/11/07 04:01:19;;;;;;;4.75;3.30;;;10.90;92.20;;;;;;5095314;28;20044;-79
2021/11/07 04:03:45;;;;;;;5.65;3.58;;;10.90;92.20;;;;;;5113570;28;20046;-81
2021/11/07 04:06:12;;;;;;;5.68;3.20;;;10.90;92.20;;;;;;5077536;28;20035;-81
2021/11/07 04:08:40;;;;;;;6.43;3.80;;;10.90;92.30;;;;;;5114527;28;20054;-79
2021/11/07 04:11:07;;;;;;;4.85;2.65;;;11.00;92.30;;;;;;5079094;28;20039;-79
2021/11/07 04:13:36;;;;;;;4.47;2.65;;;11.10;92.20;;;;;;5113679;28;20105;-79
2021/11/07 04:16:02;;;;;;;4.65;2.47;;;10.90;92.20;;;;;;5096790;28;20118;-78
2021/11/07 04:18:28;;;;;;;4.45;2.42;;;11.00;92.20;;;;;;5079490;28;20177;-79
2021/11/07 04:20:54;;;;;;;4.45;2.00;;;10.90;92.20;;;;;;5113524;28;20410;-78
2021/11/07 04:23:19;;;;;;;3.72;1.80;;;10.90;92.20;;;;;;5077793;28;20043;-79
2021/11/07 04:25:45;;;;;;;2.58;1.50;;;10.90;92.20;;;;;;5094408;28;20116;-79
2021/11/07 04:28:11;;;;;;;3.17;1.40;;;10.80;92.30;;;;;;5113018;28;20041;-79
2021/11/07 04:30:37;;;;;;;4.93;1.40;;;10.90;92.30;;;;;;5093167;28;20050;-78
2021/11/07 04:33:03;;;;;;;4.22;1.20;;;10.80;92.30;;;;;;5094209;28;20093;-78
2021/11/07 04:35:29;;;;;;;3.17;1.13;;;10.70;92.30;;;;;;5076636;28;20040;-79
2021/11/07 04:37:55;;;;;;;2.08;1.13;;;10.70;92.30;;;;;;5094510;28;20035;-79
2021/11/07 04:40:21;;;;;;;3.00;1.02;;;10.70;92.40;;;;;;5077412;28;20047;-80
2021/11/07 04:42:47;;;;;;;0.95;0.68;;;10.70;92.40;;;;;;5094724;28;20051;-80
2021/11/07 04:45:14;;;;;;;2.92;0.90;;;10.70;92.50;;;;;;5094397;28;20043;-79
2021/11/07 04:47:40;;;;;;;1.73;0.98;;;10.70;92.50;;;;;;5077480;28;20040;-81
2021/11/07 04:50:08;;;;;;;1.27;0.88;;;10.70;92.50;;;;;;5112889;28;20046;-80
2021/11/07 04:52:34;;;;;;;2.92;0.90;;;10.60;92.40;;;;;;5096094;28;20040;-80
2021/11/07 04:55:00;;;;;;;2.25;0.80;;;10.70;92.50;;;;;;5098001;28;20059;-80
2021/11/07 04:57:26;;;;;;;1.15;0.82;;;10.70;92.50;;;;;;5098116;28;20122;-81
2021/11/07 04:59:51;;;;;;;1.58;0.95;;;10.70;92.70;;;;;;5116180;28;20070;-80
2021/11/07 05:02:17;;;;;;;1.10;0.65;;;10.70;92.50;;;;;;5080090;28;20044;-81
2021/11/07 05:04:43;;;;;;;1.13;0.63;;;10.70;92.50;;;;;;5080822;28;20472;-81
2021/11/07 05:07:09;;;;;;;2.63;0.90;;;10.60;92.50;;;;;;5097587;28;20055;-80
2021/11/07 05:09:35;;;;;;;2.13;1.10;;;10.70;92.50;;;;;;5097855;28;20051;-80
2021/11/07 05:12:01;;;;;;;1.90;0.70;;;10.70;92.50;;;;;;5116171;28;20040;-81
2021/11/07 05:14:27;;;;;;;2.08;0.80;;;10.70;92.50;;;;;;5095988;28;20044;-80
2021/11/07 05:16:53;;;;;;;1.27;0.77;;;10.60;92.50;;;;;;5116203;28;20388;-81
2021/11/07 05:19:19;;;;;;;1.73;0.75;;;10.70;92.50;;;;;;5116226;28;20418;-81
2021/11/07 05:21:45;;;;;;;1.27;0.80;;;10.70;92.50;;;;;;5115785;28;20409;-81
2021/11/07 05:24:10;;;;;;;1.02;0.57;;;10.60;92.50;;;;;;5093935;28;20092;-81
2021/11/07 05:26:36;;;;;;;1.60;0.80;;;10.60;92.80;;;;;;5081187;28;20404;-81
2021/11/07 05:29:05;;;;;;;1.17;0.80;;;10.60;92.50;;;;;;5115891;28;20031;-81
2021/11/07 05:31:31;;;;;;;1.10;0.55;;;10.60;92.50;;;;;;5116020;28;20473;-80
2021/11/07 05:33:57;;;;;;;2.35;0.68;;;10.60;92.50;;;;;;5078783;28;20046;-81
2021/11/07 05:36:24;;;;;;;2.65;0.98;;;10.60;92.50;;;;;;5081028;28;20474;-81
2021/11/07 05:38:50;;;;;;;0.80;0.60;;;10.60;92.60;;;;;;5096648;28;20068;-81
2021/11/07 05:41:16;;;;;;;1.35;0.65;;;10.60;92.50;;;;;;5097206;28;20063;-81
2021/11/07 05:43:41;;;;;;;1.55;0.50;;;10.50;92.50;;;;;;5098556;28;20066;-81
2021/11/07 05:46:08;;;;;;;1.42;0.50;;;10.50;92.50;;;;;;5096801;28;20520;-81
2021/11/07 05:48:38;;;;;;;1.27;0.65;;;10.50;92.60;;;;;;5081015;28;20063;-79
2021/11/07 05:51:06;;;;;;;1.58;0.47;;;10.50;92.60;;;;;;5117415;28;20074;-80
2021/11/07 05:53:32;;;;;;;2.78;0.70;;;10.50;92.60;;;;;;5097162;28;20126;-80
2021/11/07 05:55:57;;;;;;;1.73;0.70;;;10.60;92.60;;;;;;5096927;28;20032;-80
2021/11/07 05:58:23;;;;;;;0.57;0.40;;;10.40;92.60;;;;;;5079976;28;20531;-81
2021/11/07 06:00:49;;;;;;;2.40;0.60;;;10.50;92.60;;;;;;5115358;28;20126;-81
2021/11/07 06:03:15;;;;;;;0.82;0.63;;;10.50;92.60;;;;;;5114853;28;20095;-81
2021/11/07 06:05:41;;;;;;;0.38;0.28;;;10.40;92.60;;;;;;5097401;28;20063;-81
2021/11/07 06:08:07;;;;;;;2.17;0.50;;;10.40;92.60;;;;;;5064936;28;20477;-81
2021/11/07 06:10:32;;;;;;;2.85;0.47;;;10.20;92.50;;;;;;5096680;28;20043;-81
2021/11/07 06:12:58;;;;;;;1.15;0.40;;;10.30;92.60;;;;;;5079614;28;20054;-80
2021/11/07 06:15:24;;;;;;;1.20;0.50;;;10.30;92.60;;;;;;5114702;28;20047;-80
2021/11/07 06:17:50;;;;;;;1.05;0.43;;;10.20;92.50;;;;;;5098214;28;20051;-80
2021/11/07 06:20:16;;;;;;;1.15;0.30;;;10.10;92.50;;;;;;5096337;28;20036;-80
2021/11/07 06:22:42;;;;;;;1.77;0.38;;;10.10;92.60;;;;;;5096772;28;20050;-80
2021/11/07 06:25:08;;;;;;;0.68;0.28;;;10.10;92.60;;;;;;5114494;28;20048;-80
2021/11/07 06:27:35;;;;;;;1.13;0.35;;;10.00;92.60;;;;;;5078017;28;20135;-80
2021/11/07 06:30:02;;;;;;;1.65;0.40;;;9.90;92.60;;;;;;5114556;28;20035;-80
2021/11/07 06:32:28;;;;;;;0.80;0.40;;;9.90;92.60;;;;;;5096401;28;20039;-80
2021/11/07 06:34:53;;;;;;;0.32;0.30;;;9.90;92.60;;;;;;5095144;28;20402;-80
2021/11/07 06:37:19;;;;;;;2.20;0.50;;;9.80;92.60;;;;;;5115086;28;20399;-80
2021/11/07 06:39:46;;;;;;;0.80;0.30;;;9.80;92.60;;;;;;5095887;28;20080;-80
2021/11/07 06:42:12;;;;;;;2.17;0.45;;;9.80;92.70;;;;;;5066690;28;20043;-80
2021/11/07 06:44:38;;;;;;;1.55;0.40;;;9.70;92.70;;;;;;5098917;28;20051;-80
2021/11/07 06:47:06;;;;;;;0.77;0.30;;;9.70;92.70;;;;;;5062673;28;20051;-80
2021/11/07 06:49:32;;;;;;;2.58;0.70;;;9.60;92.60;;;;;;5096360;28;20048;-80
2021/11/07 06:51:58;;;;;;;2.58;0.43;;;9.60;92.60;;;;;;5095961;28;20040;-80
2021/11/07 06:54:26;;;;;;;1.38;0.47;;;9.60;92.60;;;;;;5062623;28;20039;-79
2021/11/07 06:56:52;;;;;;;2.85;0.50;;;9.50;92.60;;;;;;5096128;28;20035;-79
2021/11/07 06:59:17;;;;;;;0.38;0.38;;;9.50;92.70;;;;;;5062924;28;20477;-79
2021/11/07 07:01:43;;;;;;;1.35;0.40;;;9.50;92.70;;;;;;5095382;28;20469;-79
2021/11/07 07:04:09;;;;;;;2.28;0.47;;;9.50;92.70;;;;;;5114417;28;20491;-79
2021/11/07 07:06:36;;;;;;;1.52;0.40;;;9.40;92.70;;;;;;5096502;28;20534;-79
2021/11/07 07:09:07;;;;;;;1.17;0.47;;;9.40;92.70;;;;;;5096309;28;20089;-80
2021/11/07 07:11:43;;;;;;;;;;;9.40;92.70;;;;;;5097489;28;20040;-79
2021/11/07 07:14:13;;;;;;;2.38;0.65;;;9.40;92.70;;;;;;5096304;28;19912;-80
2021/11/07 07:16:57;;;;;;;1.23;0.30;;;9.30;92.60;;;;;;5096310;28;20042;-79
2021/11/07 07:22:34;;;;;;;0.77;0.32;;;9.30;92.60;;;;;;5098756;28;20428;-80
2021/11/07 07:27:55;;;;;;;1.35;0.50;;;9.30;92.60;;;;;;5083990;28;20048;-80
2021/11/07 07:30:33;;;;;;;0.52;0.30;;;9.20;92.60;;;;;;5095277;28;20051;-79
2021/11/07 07:35:39;;;;;;;1.58;0.30;;;9.20;92.60;;;;;;5080742;28;20036;-80
2021/11/07 07:38:04;;;;;;;0.30;0.30;;;9.20;92.60;;;;;;5095120;28;20405;-79
2021/11/07 07:40:33;;;;;;;1.33;0.43;;;9.20;92.60;;;;;;5095198;28;20059;-79
2021/11/07 07:42:59;;;;;;;1.23;0.43;;;9.20;92.60;;;;;;5095367;28;20043;-80
2021/11/07 07:45:25;;;;;;;1.27;0.30;;;9.10;92.60;;;;;;5093131;28;20196;-79
2021/11/07 07:47:52;;;;;;;1.35;0.30;;;9.10;92.60;;;;;;5094923;28;20043;-79
2021/11/07 07:50:21;;;;;;;1.33;0.50;;;9.20;92.50;;;;;;5061504;28;20062;-79
2021/11/07 07:52:47;;;;;;;1.23;0.40;;;9.20;92.50;;;;;;5113182;28;20047;-79
2021/11/07 07:55:13;;;;;;;1.48;0.40;;;9.20;92.50;;;;;;5095021;28;20066;-79
2021/11/07 07:57:40;;;;;;;3.97;0.43;;;9.20;92.50;;;;;;5113175;28;20070;-79
2021/11/07 08:00:09;;;;;;;1.45;0.50;;;9.30;92.50;;;;;;5113420;28;20043;-79
2021/11/07 08:02:35;;;;;;;1.85;0.47;;;9.30;92.40;;;;;;5094759;28;20078;-79
2021/11/07 08:05:01;;;;;;;2.15;0.50;;;9.30;92.40;;;;;;5093322;28;20059;-79
2021/11/07 08:07:27;;;;;;;1.95;0.47;;;9.30;92.40;;;;;;5113072;28;20122;-79
2021/11/07 08:09:54;;;;;;;1.05;0.35;;;9.40;92.30;;;;;;5077775;28;20134;-80
2021/11/07 08:12:20;;;;;;;1.80;0.50;;;9.30;92.30;;;;;;5113935;28;20094;-80
2021/11/07 08:14:47;;;;;;;2.03;0.40;;;9.40;92.20;;;;;;5095666;28;20032;-80
2021/11/07 08:17:13;;;;;;;2.95;0.55;;;9.50;92.20;;;;;;5099283;28;20058;-79
2021/11/07 08:19:40;;;;;;;0.45;0.30;;;9.50;92.20;;;;;;5098384;28;20528;-79
2021/11/07 08:22:07;;;;;;;2.45;0.52;;;9.70;92.10;;;;;;5094754;28;20525;-79
2021/11/07 08:24:35;;;;;;;2.80;0.57;;;9.80;92.00;;;;;;5063298;28;20069;-80
2021/11/07 08:27:01;;;;;;;2.95;0.63;;;9.80;91.90;;;;;;5111459;28;20044;-80
2021/11/07 08:29:28;;;;;;;2.30;0.63;;;9.90;91.80;;;;;;5096331;28;20501;-80
2021/11/07 08:31:53;;;;;;;2.92;0.68;;;10.00;91.70;;;;;;5100543;28;20434;-79
2021/11/07 08:34:24;;;;;;;2.45;0.68;;;10.00;91.60;;;;;;5100828;28;20120;-80
2021/11/07 08:36:57;;;;;;;1.20;0.60;;;10.10;91.50;;;;;;5101890;28;20032;-79
2021/11/07 08:39:27;;;;;;;1.80;0.40;;;10.10;91.40;;;;;;5101729;28;20131;-80
2021/11/07 08:42:00;;;;;;;1.80;0.52;;;10.10;91.30;;;;;;5120368;28;20043;-80
2021/11/07 09:00:41;;;;;;;1.67;0.57;;;10.00;91.40;;;;;;5109272;28;20124;-79
2021/11/07 09:03:18;;;;;;;1.52;0.50;;;10.00;91.50;;;;;;5093267;28;20044;-78
2021/11/07 09:06:00;;;;;;;0.60;0.40;;;10.10;91.40;;;;;;5093938;28;20039;-78
2021/11/07 09:08:27;;;;;;;1.27;0.50;;;10.10;91.50;;;;;;5113157;28;20497;-77
2021/11/07 09:10:55;;;;;;;1.15;0.47;;;10.10;91.40;;;;;;5113322;28;20040;-77
2021/11/07 09:13:21;;;;;;;1.15;0.63;;;10.10;91.40;;;;;;5094123;28;20037;-81
2021/11/07 09:15:50;;;;;;;0.75;0.40;;;10.20;91.40;;;;;;5061316;28;20108;-78
2021/11/07 09:18:17;;;;;;;1.83;0.52;;;10.30;91.30;;;;;;5101187;28;20488;-78
2021/11/07 09:20:51;;;;;;;3.08;0.52;;;10.30;91.30;;;;;;5085641;28;20400;-78
2021/11/07 09:23:26;;;;;;;2.15;0.68;;;10.40;91.20;;;;;;5085001;28;20093;-78
2021/11/07 09:28:46;;;;;;;2.42;0.70;;;10.50;90.90;;;;;;5089664;28;20055;-78
2021/11/07 09:31:27;;;;;;;2.83;0.80;;;10.50;90.90;;;;;;5108910;28;20051;-79
2021/11/07 09:34:09;;;;;;;;;;;10.50;90.90;;;;;;5124183;28;20032;-78
2021/11/07 09:36:43;;;;;;;2.25;0.52;;;10.60;90.90;;;;;;5120575;28;19916;-78
2021/11/07 09:39:21;;;;;;;1.85;0.40;;;10.60;90.80;;;;;;5090019;28;20035;-78
2021/11/07 09:42:00;;;;;;;1.42;0.57;;;10.50;90.80;;;;;;5107498;28;20055;-78
2021/11/07 09:44:28;;;;;;;1.17;0.40;;;10.60;90.80;;;;;;5117637;28;20071;-79
2021/11/07 09:46:57;;;;;;;0.88;0.40;;;10.60;90.80;;;;;;5080729;28;20512;-78
2021/11/07 09:49:30;;;;;;;3.35;0.68;;;10.60;90.80;;;;;;5081731;28;20374;-78
2021/11/07 09:52:08;;;;;;;2.33;0.55;;;10.70;90.80;;;;;;5115589;28;20040;-77
2021/11/07 09:54:34;;;;;;;1.33;0.50;;;10.80;90.80;;;;;;5103511;28;20066;-77
2021/11/07 09:57:02;;;;;;;2.72;0.70;;;10.90;90.80;;;;;;5129414;27;20131;-80
2021/11/07 09:59:29;;;;;;;2.92;0.45;;;11.00;90.60;;;;;;5087808;28;20040;-79
2021/11/07 10:01:58;;;;;;;1.02;0.40;;;11.10;90.50;;;;;;5087798;28;20046;-79
2021/11/07 10:04:26;;;;;;;3.13;0.65;;;11.20;90.40;;;;;;5122881;28;20108;-79
2021/11/07 10:06:57;;;;;;;2.10;0.63;;;11.20;90.30;;;;;;5067627;28;20040;-78
2021/11/07 10:09:36;;;;;;;1.65;0.60;;;11.30;90.30;;;;;;5103422;28;20390;-78
2021/11/07 10:12:15;;;;;;;1.55;0.70;;;11.30;90.20;;;;;;5085518;28;20110;-79
2021/11/07 10:14:50;;;;;;;2.88;0.55;;;11.30;90.20;;;;;;5122788;28;20040;-78
2021/11/07 10:17:29;;;;;;;1.27;0.50;;;11.30;90.20;;;;;;5118858;28;20099;-79
2021/11/07 10:20:03;;;;;;;2.25;0.47;;;11.30;90.20;;;;;;5096308;28;20046;-79
2021/11/07 10:22:32;;;;;;;1.20;0.68;;;11.30;90.20;;;;;;5079027;28;20105;-79
2021/11/07 10:24:58;;;;;;;3.08;0.70;;;11.40;90.10;;;;;;5096797;28;20088;-78
2021/11/07 10:27:24;;;;;;;2.58;0.70;;;11.40;90.00;;;;;;5096943;28;20062;-79
2021/11/07 10:29:52;;;;;;;3.53;0.70;;;11.40;90.00;;;;;;5114951;28;20560;-78
2021/11/07 10:32:28;;;;;;;2.35;0.40;;;11.50;90.00;;;;;;5114343;28;20100;-79
2021/11/07 10:35:38;;;;;;;3.72;0.80;;;11.50;90.00;;;;;;5096386;28;20128;-79
2021/11/07 10:43:40;;;;;;;3.47;0.98;;;11.50;90.00;;;;;;5099254;28;20055;-80
2021/11/07 10:46:31;;;;;;;3.13;0.95;;;11.60;89.90;;;;;;5095418;28;20047;-80
2021/11/07 10:54:25;;;;;;;5.07;0.77;;;11.50;89.60;;;;;;5099416;28;20132;-80
2021/11/07 10:57:15;;;;;;;3.88;0.80;;;11.60;89.40;;;;;;5114495;28;20126;-80
2021/11/07 11:00:04;;;;;;;2.97;0.50;;;11.60;89.30;;;;;;5079836;28;20035;-79
2021/11/07 11:02:36;;;;;;;3.63;1.13;;;11.70;89.30;;;;;;5080485;28;20462;-79
2021/11/07 11:05:10;;;;;;;2.83;0.82;;;11.70;89.10;;;;;;5096131;28;20036;-77
2021/11/07 11:07:55;;;;;;;2.42;0.75;;;11.90;89.00;;;;;;5095047;28;20485;-78
2021/11/07 11:10:29;;;;;;;3.03;0.70;;;12.00;88.90;;;;;;5078984;28;20044;-77
2021/11/07 11:13:10;;;;;;;2.05;0.50;;;12.00;88.60;;;;;;5096176;28;20414;-77
2021/11/07 11:15:42;;;;;;;2.60;0.88;;;12.10;88.40;;;;;;5063878;28;20078;-77
2021/11/07 11:18:25;;;;;;;2.78;0.65;;;12.10;88.20;;;;;;5113742;28;20126;-77
2021/11/07 11:21:18;;;;;;;3.35;0.73;;;12.00;88.20;;;;;;5083717;28;20035;-78
2021/11/07 11:23:56;;;;;;;2.70;0.70;;;12.10;88.30;;;;;;5080796;28;20389;-78
2021/11/07 11:32:01;;;;;;;3.78;1.05;;;12.20;87.90;;;;;;5097482;28;20052;-78
2021/11/07 11:34:33;;;;;;;1.58;0.70;;;12.30;87.70;;;;;;5080950;28;20039;-77
2021/11/07 11:37:16;;;;;;;2.95;0.80;;;12.40;87.50;;;;;;5078830;28;20072;-77
2021/11/07 11:42:25;;;;;;;3.50;1.20;;;12.50;87.10;;;;;;5096843;28;20519;-78
2021/11/07 11:44:54;;;;;;;3.40;0.93;;;12.60;87.00;;;;;;5096223;28;20047;-79
2021/11/07 11:47:40;;;;;;;2.95;0.90;;;12.60;86.80;;;;;;5095057;28;20078;-79
2021/11/07 11:50:26;;;;;;;4.72;1.00;;;12.60;86.70;;;;;;5078749;28;20048;-79
2021/11/07 11:55:39;;;;;;;3.38;0.80;;;12.40;86.70;;;;;;5094790;28;20112;-79
2021/11/07 11:58:22;;;;;;;3.58;0.98;;;12.20;86.80;;;;;;5079953;28;20035;-79
2021/11/07 12:00:56;;;;;;;5.40;0.93;;;12.10;87.00;;;;;;5098046;28;20115;-79
2021/11/07 12:06:43;;;;;;;2.30;0.77;;;11.80;87.40;;;;;;5097936;28;20075;-79
2021/11/07 12:09:21;;;;;;;3.10;0.95;;;11.40;87.50;;;;;;5098629;28;20088;-79
2021/11/07 12:11:55;;;;;;;3.25;0.85;;;11.10;88.10;;;;;;5063962;28;20138;-80
2021/11/07 12:17:07;;;;;;;0.52;0.43;;;10.70;89.40;;;;;;5082371;28;20036;-79
2021/11/07 12:19:39;;;;;;;1.20;0.40;;;10.60;89.80;;;;;;5078496;28;20047;-80
2021/11/07 12:22:10;;;;;;;0.95;0.47;;;10.50;90.00;;;;;;5094598;28;20067;-80
2021/11/07 12:24:58;;;;;;;1.77;0.50;;;10.40;90.00;;;;;;5095275;28;20071;-81
2021/11/07 12:27:28;;;;;;;1.90;0.20;;;10.40;90.10;;;;;;5061847;28;20036;-80
2021/11/07 12:30:01;;;;;;;1.98;0.50;;;10.30;90.10;;;;;;5092837;28;20039;-80
2021/11/07 12:32:33;;;;;;;1.88;0.60;;;10.30;90.10;;;;;;5078356;28;20043;-81
2021/11/07 12:35:11;;;;;;;0.82;0.30;;;10.30;90.10;;;;;;5094633;28;20036;-81
2021/11/07 12:40:58;;;;;;;1.35;0.52;;;10.30;90.20;;;;;;5096553;28;20108;-81
2021/11/07 12:43:39;;;;;;;0.52;0.30;;;10.10;90.30;;;;;;5112603;28;20428;-81
2021/11/07 12:49:02;;;;;;;1.77;0.30;;;10.10;90.30;;;;;;5082967;28;20049;-80
2021/11/07 12:51:39;;;;;;;2.60;0.60;;;10.10;90.30;;;;;;5094331;28;20044;-80
2021/11/07 12:54:13;;;;;;;1.63;0.60;;;10.10;90.30;;;;;;5077913;28;20101;-80
2021/11/07 12:56:46;;;;;;;1.95;0.35;;;10.20;90.20;;;;;;5080937;28;20477;-80
2021/11/07 12:59:16;;;;;;;0.68;0.35;;;10.10;90.20;;;;;;5061619;28;20060;-78
2021/11/07 13:02:13;;;;;;;2.00;0.30;;;10.20;90.20;;;;;;5113101;28;20035;-80
2021/11/07 13:05:00;;;;;;;2.60;0.57;;;10.30;90.20;;;;;;5112328;28;20520;-80
2021/11/07 13:07:32;;;;;;;2.92;0.70;;;10.20;90.20;;;;;;5094613;28;20048;-80
2021/11/07 13:10:04;;;;;;;3.08;0.85;;;10.30;90.20;;;;;;5092446;28;20063;-80
2021/11/07 13:12:36;;;;;;;0.90;0.45;;;10.30;90.10;;;;;;5061412;28;20077;-80
2021/11/07 13:15:32;;;;;;;3.42;0.80;;;10.30;90.10;;;;;;5115104;28;20032;-80
2021/11/07 13:21:25;;;;;;;2.40;0.65;;;10.40;90.00;;;;;;5087566;28;20138;-81
2021/11/07 13:24:10;;;;;;;1.95;0.70;;;10.50;89.90;;;;;;5081994;28;20039;-81
2021/11/07 13:26:48;;;;;;;2.38;0.65;;;10.60;89.60;;;;;;5085934;28;20035;-81
2021/11/07 13:29:28;;;;;;;1.90;0.40;;;10.70;89.40;;;;;;5078311;28;20072;-81
2021/11/07 13:32:10;;;;;;;3.75;0.88;;;10.70;89.30;;;;;;5067970;28;20109;-81
2021/11/07 13:34:50;;;;;;;0.95;0.50;;;10.60;89.30;;;;;;5084069;28;20046;-81
2021/11/07 13:37:21;;;;;;;2.45;0.75;;;10.80;90.00;;;;;;5097657;28;20040;-80
2021/11/07 13:39:47;;;;;;;3.15;0.90;;;10.90;89.20;;;;;;5063856;28;20040;-81
2021/11/07 13:42:14;;;;;;;2.05;0.47;;;11.10;89.00;;;;;;5097398;28;20099;-80
2021/11/07 13:45:00;;;;;;;2.53;0.57;;;11.10;88.80;;;;;;5098823;28;20489;-81
2021/11/07 13:47:40;;;;;;;1.90;0.52;;;11.20;88.70;;;;;;5098733;28;20577;-80
2021/11/07 13:50:09;;;;;;;1.92;0.70;;;11.10;88.50;;;;;;5097172;28;20093;-80
2021/11/07 13:52:36;;;;;;;3.35;0.70;;;11.30;88.60;;;;;;5097352;28;20039;-80
2021/11/07 13:55:02;;;;;;;2.38;0.68;;;11.20;88.50;;;;;;5080660;28;20039;-80
2021/11/07 13:57:30;;;;;;;4.28;0.90;;;11.30;88.60;;;;;;5115019;28;20499;-81
2021/11/07 13:59:56;;;;;;;1.67;0.70;;;11.40;88.60;;;;;;5115126;28;20065;-80
2021/11/07 14:02:25;;;;;;;1.33;0.70;;;11.30;88.50;;;;;;5096975;28;20043;-81
2021/11/07 14:04:55;;;;;;;4.60;0.93;;;11.30;88.50;;;;;;5115830;28;20040;-79
2021/11/07 14:07:28;;;;;;;3.50;0.80;;;11.40;88.60;;;;;;5096788;28;20493;-81
2021/11/07 14:10:21;;;;;;;1.55;0.85;;;11.50;88.60;;;;;;5095568;28;20040;-81
2021/11/07 14:12:54;;;;;;;2.67;0.65;;;11.50;88.50;;;;;;5080941;28;20051;-80
2021/11/07 14:15:27;;;;;;;2.10;0.63;;;11.50;88.30;;;;;;5081361;28;20039;-80
2021/11/07 14:18:07;;;;;;;3.20;0.73;;;11.60;88.20;;;;;;5097947;28;20042;-80
2021/11/07 14:20:52;;;;;;;2.40;0.85;;;11.50;88.20;;;;;;5065136;28;20076;-81
2021/11/07 14:23:32;;;;;;;3.70;0.77;;;11.30;88.30;;;;;;5097479;28;20136;-80
2021/11/07 14:26:06;;;;;;;1.60;0.57;;;11.20;88.70;;;;;;5065007;28;20130;-81